createdAt,value
2022-09-06T00:00:13.003Z,17.68
2022-09-06T00:01:12.987Z,17.67
2022-09-06T00:02:13.161Z,17.72
2022-09-06T00:03:12.993Z,17.74
2022-09-06T00:04:15.457Z,17.70
2022-09-06T00:05:12.994Z,17.74
2022-09-06T00:06:12.994Z,17.70
2022-09-06T00:07:12.986Z,17.67
2022-09-06T00:08:12.987Z,17.70
2022-09-06T00:09:12.991Z,17.70
2022-09-06T00:10:12.997Z,17.68
2022-09-06T00:11:13.010Z,17.56
2022-09-06T00:12:12.991Z,17.60
2022-09-06T00:13:12.990Z,17.65
2022-09-06T00:14:12.987Z,17.67
2022-09-06T00:15:12.983Z,17.60
2022-09-06T00:16:13.038Z,17.56
2022-09-06T00:17:12.977Z,17.57
2022-09-06T00:18:12.990Z,17.57
2022-09-06T00:19:12.984Z,17.59
2022-09-06T00:20:12.984Z,17.57
2022-09-06T00:21:12.986Z,17.57
2022-09-06T00:22:12.981Z,17.54
2022-09-06T00:23:12.992Z,17.60
2022-09-06T00:24:12.982Z,17.64
2022-09-06T00:25:12.979Z,17.60
2022-09-06T00:26:12.997Z,17.46
2022-09-06T00:27:12.995Z,17.45
2022-09-06T00:28:13.010Z,17.45
2022-09-06T00:29:12.984Z,17.46
2022-09-06T00:30:12.983Z,17.48
2022-09-06T00:31:13.047Z,17.45
2022-09-06T00:32:12.984Z,17.44
2022-09-06T00:33:12.971Z,17.41
2022-09-06T00:34:12.978Z,17.44
2022-09-06T00:35:12.984Z,17.45
2022-09-06T00:36:12.983Z,17.42
2022-09-06T00:37:12.983Z,17.45
2022-09-06T00:38:12.979Z,17.41
2022-09-06T00:39:12.986Z,17.42
2022-09-06T00:40:12.998Z,17.36
2022-09-06T00:41:12.987Z,17.34
2022-09-06T00:42:12.977Z,17.38
2022-09-06T00:43:12.997Z,17.36
2022-09-06T00:44:12.988Z,17.31
2022-09-06T00:45:12.969Z,17.36
2022-09-06T00:46:13.006Z,17.33
2022-09-06T00:47:12.975Z,17.33
2022-09-06T00:48:12.965Z,17.31
2022-09-06T00:49:12.974Z,17.34
2022-09-06T00:50:12.974Z,17.33
2022-09-06T00:51:12.972Z,17.30
2022-09-06T00:52:12.976Z,17.31
2022-09-06T00:53:12.974Z,17.31
2022-09-06T00:54:12.981Z,17.29
2022-09-06T00:55:12.981Z,17.38
2022-09-06T00:56:12.967Z,17.34
2022-09-06T00:57:12.965Z,17.31
2022-09-06T00:58:12.963Z,17.27
2022-09-06T00:59:12.965Z,17.27
2022-09-06T01:00:12.964Z,17.20
2022-09-06T01:01:13.069Z,17.26
2022-09-06T01:02:13.106Z,17.23
2022-09-06T01:03:12.970Z,17.20
2022-09-06T01:04:12.980Z,17.19
2022-09-06T01:05:12.960Z,17.22
2022-09-06T01:06:12.983Z,17.27
2022-09-06T01:07:12.963Z,17.24
2022-09-06T01:08:12.979Z,17.19
2022-09-06T01:09:12.976Z,17.24
2022-09-06T01:10:12.957Z,17.22
2022-09-06T01:11:12.959Z,17.06
2022-09-06T01:12:12.955Z,17.09
2022-09-06T01:13:12.956Z,17.11
2022-09-06T01:14:12.951Z,17.15
2022-09-06T01:15:12.949Z,17.08
2022-09-06T01:16:13.011Z,17.09
2022-09-06T01:17:12.962Z,17.02
2022-09-06T01:18:12.951Z,16.99
2022-09-06T01:19:12.951Z,17.05
2022-09-06T01:20:12.952Z,17.11
2022-09-06T01:21:12.968Z,16.99
2022-09-06T01:22:12.943Z,17.05
2022-09-06T01:23:12.947Z,17.04
2022-09-06T01:24:12.949Z,16.97
2022-09-06T01:25:12.939Z,16.96
2022-09-06T01:26:12.946Z,16.91
2022-09-06T01:27:12.953Z,16.91
2022-09-06T01:28:12.943Z,17.01
2022-09-06T01:29:12.937Z,16.94
2022-09-06T01:30:12.945Z,16.93
2022-09-06T01:31:13.018Z,16.90
2022-09-06T01:32:12.947Z,16.89
2022-09-06T01:33:12.940Z,16.84
2022-09-06T01:34:12.940Z,16.83
2022-09-06T01:35:12.941Z,16.81
2022-09-06T01:36:12.931Z,16.75
2022-09-06T01:37:12.933Z,16.83
2022-09-06T01:38:12.939Z,16.84
2022-09-06T01:39:12.931Z,16.81
2022-09-06T01:40:12.935Z,16.86
2022-09-06T01:41:12.929Z,16.78
2022-09-06T01:42:12.935Z,16.83
2022-09-06T01:43:12.938Z,16.76
2022-09-06T01:44:12.940Z,16.74
2022-09-06T01:45:12.932Z,16.75
2022-09-06T01:46:12.985Z,16.72
2022-09-06T01:47:12.929Z,16.79
2022-09-06T01:48:12.943Z,16.64
2022-09-06T01:49:12.927Z,16.78
2022-09-06T01:50:12.935Z,16.65
2022-09-06T01:51:12.917Z,16.65
2022-09-06T01:52:12.922Z,16.66
2022-09-06T01:53:12.923Z,16.66
2022-09-06T01:54:12.931Z,16.72
2022-09-06T01:55:12.916Z,16.81
2022-09-06T01:56:12.919Z,16.71
2022-09-06T01:57:12.927Z,16.71
2022-09-06T01:58:12.944Z,16.68
2022-09-06T01:59:12.931Z,16.71
2022-09-06T02:00:12.937Z,16.68
2022-09-06T02:01:12.984Z,16.71
2022-09-06T02:02:12.979Z,16.69
2022-09-06T02:03:12.905Z,16.74
2022-09-06T02:04:12.907Z,16.69
2022-09-06T02:05:12.912Z,16.76
2022-09-06T02:06:12.936Z,16.71
2022-09-06T02:07:12.911Z,16.68
2022-09-06T02:08:12.906Z,16.68
2022-09-06T02:09:12.912Z,16.68
2022-09-06T02:10:12.915Z,16.71
2022-09-06T02:11:12.903Z,16.75
2022-09-06T02:12:12.908Z,16.74
2022-09-06T02:13:12.919Z,16.68
2022-09-06T02:14:12.897Z,16.68
2022-09-06T02:15:12.922Z,16.74
2022-09-06T02:16:12.896Z,16.74
2022-09-06T02:17:12.902Z,16.79
2022-09-06T02:18:12.920Z,16.66
2022-09-06T02:19:12.904Z,16.72
2022-09-06T02:20:12.910Z,16.75
2022-09-06T02:21:12.902Z,16.76
2022-09-06T02:22:12.906Z,16.68
2022-09-06T02:23:12.895Z,16.58
2022-09-06T02:24:12.929Z,16.71
2022-09-06T02:25:12.924Z,16.72
2022-09-06T02:26:12.921Z,16.75
2022-09-06T02:27:12.911Z,16.69
2022-09-06T02:28:12.888Z,16.64
2022-09-06T02:29:12.884Z,16.68
2022-09-06T02:30:12.885Z,16.68
2022-09-06T02:31:12.952Z,16.64
2022-09-06T02:32:12.886Z,16.58
2022-09-06T02:33:12.884Z,16.60
2022-09-06T02:34:12.889Z,16.56
2022-09-06T02:35:12.894Z,16.53
2022-09-06T02:36:12.884Z,16.53
2022-09-06T02:37:12.889Z,16.57
2022-09-06T02:38:12.895Z,16.54
2022-09-06T02:39:12.883Z,16.54
2022-09-06T02:40:12.960Z,16.57
2022-09-06T02:41:12.954Z,16.57
2022-09-06T02:42:12.885Z,16.53
2022-09-06T02:43:12.877Z,16.46
2022-09-06T02:44:12.867Z,16.50
2022-09-06T02:45:12.879Z,16.43
2022-09-06T02:46:12.970Z,16.41
2022-09-06T02:47:12.863Z,16.42
2022-09-06T02:48:12.875Z,16.41
2022-09-06T02:49:12.896Z,16.46
2022-09-06T02:50:12.895Z,16.43
2022-09-06T02:51:12.879Z,16.39
2022-09-06T02:52:12.875Z,16.50
2022-09-06T02:53:12.871Z,16.43
2022-09-06T02:54:12.859Z,16.47
2022-09-06T02:55:12.872Z,16.43
2022-09-06T02:56:12.861Z,16.46
2022-09-06T02:57:12.855Z,16.42
2022-09-06T02:58:12.853Z,16.41
2022-09-06T02:59:12.859Z,16.33
2022-09-06T03:00:12.862Z,16.41
2022-09-06T03:01:12.919Z,16.39
2022-09-06T03:02:12.928Z,16.35
2022-09-06T03:03:12.866Z,16.31
2022-09-06T03:04:12.894Z,16.33
2022-09-06T03:05:12.857Z,16.31
2022-09-06T03:06:12.848Z,16.41
2022-09-06T03:07:12.842Z,16.29
2022-09-06T03:08:12.842Z,16.31
2022-09-06T03:09:12.843Z,16.29
2022-09-06T03:10:12.862Z,16.33
2022-09-06T03:11:12.843Z,16.33
2022-09-06T03:12:12.850Z,16.31
2022-09-06T03:13:12.838Z,16.29
2022-09-06T03:14:12.845Z,16.26
2022-09-06T03:15:12.845Z,16.21
2022-09-06T03:16:12.884Z,16.24
2022-09-06T03:17:12.839Z,16.21
2022-09-06T03:18:12.829Z,16.17
2022-09-06T03:19:12.827Z,16.20
2022-09-06T03:20:12.829Z,16.23
2022-09-06T03:21:12.836Z,16.23
2022-09-06T03:22:12.823Z,16.28
2022-09-06T03:23:12.827Z,16.23
2022-09-06T03:24:12.830Z,16.26
2022-09-06T03:25:12.839Z,16.24
2022-09-06T03:26:12.825Z,16.33
2022-09-06T03:27:12.830Z,16.29
2022-09-06T03:28:12.832Z,16.21
2022-09-06T03:29:12.826Z,16.24
2022-09-06T03:30:12.844Z,16.15
2022-09-06T03:31:12.863Z,16.10
2022-09-06T03:32:12.828Z,16.05
2022-09-06T03:33:12.823Z,16.12
2022-09-06T03:34:12.816Z,16.10
2022-09-06T03:35:12.813Z,16.09
2022-09-06T03:36:12.815Z,16.13
2022-09-06T03:37:12.817Z,16.13
2022-09-06T03:38:12.810Z,16.09
2022-09-06T03:39:12.810Z,16.12
2022-09-06T03:40:12.811Z,16.09
2022-09-06T03:41:12.835Z,16.17
2022-09-06T03:42:12.807Z,16.10
2022-09-06T03:43:12.821Z,16.15
2022-09-06T03:44:12.810Z,16.08
2022-09-06T03:45:12.805Z,16.09
2022-09-06T03:46:12.883Z,16.12
2022-09-06T03:47:13.548Z,16.09
2022-09-06T03:48:12.797Z,16.01
2022-09-06T03:49:12.818Z,16.02
2022-09-06T03:50:12.796Z,16.00
2022-09-06T03:51:12.815Z,15.98
2022-09-06T03:52:12.818Z,16.01
2022-09-06T03:53:12.791Z,16.01
2022-09-06T03:54:12.813Z,16.10
2022-09-06T03:55:12.784Z,16.01
2022-09-06T03:56:12.811Z,16.04
2022-09-06T03:57:12.788Z,16.10
2022-09-06T03:58:12.795Z,16.00
2022-09-06T03:59:12.787Z,16.04
2022-09-06T04:00:12.783Z,15.98
2022-09-06T04:01:12.811Z,15.97
2022-09-06T04:02:12.821Z,15.97
2022-09-06T04:03:12.793Z,15.95
2022-09-06T04:04:12.800Z,15.98
2022-09-06T04:05:12.787Z,16.00
2022-09-06T04:06:12.778Z,15.97
2022-09-06T04:07:12.804Z,16.02
2022-09-06T04:08:12.784Z,16.00
2022-09-06T04:09:12.800Z,16.01
2022-09-06T04:10:12.772Z,15.98
2022-09-06T04:11:12.778Z,15.98
2022-09-06T04:12:12.787Z,16.01
2022-09-06T04:13:12.756Z,15.98
2022-09-06T04:14:12.764Z,15.97
2022-09-06T04:15:12.759Z,15.92
2022-09-06T04:16:12.842Z,15.95
2022-09-06T04:17:12.754Z,15.90
2022-09-06T04:18:12.752Z,15.88
2022-09-06T04:19:12.756Z,15.90
2022-09-06T04:20:12.746Z,15.86
2022-09-06T04:21:12.746Z,15.75
2022-09-06T04:22:12.750Z,15.88
2022-09-06T04:23:12.743Z,15.90
2022-09-06T04:24:12.742Z,15.84
2022-09-06T04:25:12.755Z,15.88
2022-09-06T04:26:12.744Z,15.79
2022-09-06T04:27:12.758Z,15.77
2022-09-06T04:28:12.753Z,15.82
2022-09-06T04:29:12.740Z,15.91
2022-09-06T04:30:12.733Z,15.79
2022-09-06T04:31:12.745Z,15.86
2022-09-06T04:32:12.825Z,15.84
2022-09-06T04:33:12.724Z,15.92
2022-09-06T04:34:12.731Z,15.84
2022-09-06T04:35:12.725Z,15.92
2022-09-06T04:36:12.727Z,15.83
2022-09-06T04:37:12.738Z,15.83
2022-09-06T04:38:12.723Z,15.73
2022-09-06T04:39:12.718Z,15.88
2022-09-06T04:40:12.723Z,15.83
2022-09-06T04:41:12.719Z,15.90
2022-09-06T04:42:12.721Z,15.86
2022-09-06T04:43:12.727Z,16.08
2022-09-06T04:44:12.717Z,15.88
2022-09-06T04:45:12.716Z,15.91
2022-09-06T04:46:12.797Z,15.86
2022-09-06T04:47:12.710Z,15.86
2022-09-06T04:48:12.712Z,15.88
2022-09-06T04:49:12.706Z,15.76
2022-09-06T04:50:12.706Z,15.79
2022-09-06T04:51:12.712Z,15.86
2022-09-06T04:52:12.779Z,15.77
2022-09-06T04:53:12.724Z,15.82
2022-09-06T04:54:12.702Z,15.80
2022-09-06T04:55:12.720Z,15.72
2022-09-06T04:56:12.696Z,15.76
2022-09-06T04:57:12.700Z,15.79
2022-09-06T04:58:12.698Z,15.75
2022-09-06T04:59:12.694Z,15.67
2022-09-06T05:00:12.696Z,15.76
2022-09-06T05:01:12.717Z,15.76
2022-09-06T05:02:12.779Z,15.83
2022-09-06T05:03:12.695Z,15.77
2022-09-06T05:04:12.694Z,15.72
2022-09-06T05:05:12.707Z,15.80
2022-09-06T05:06:12.686Z,15.72
2022-09-06T05:07:12.686Z,15.82
2022-09-06T05:08:12.682Z,15.79
2022-09-06T05:09:12.681Z,15.84
2022-09-06T05:10:12.679Z,15.84
2022-09-06T05:11:12.674Z,15.86
2022-09-06T05:12:12.677Z,15.79
2022-09-06T05:13:12.677Z,15.76
2022-09-06T05:14:12.689Z,15.80
2022-09-06T05:15:12.725Z,15.77
2022-09-06T05:16:12.736Z,15.75
2022-09-06T05:17:12.669Z,15.70
2022-09-06T05:18:16.064Z,15.72
2022-09-06T05:19:12.682Z,15.65
2022-09-06T05:20:12.658Z,15.61
2022-09-06T05:21:12.659Z,15.64
2022-09-06T05:22:12.660Z,15.73
2022-09-06T05:23:12.655Z,15.67
2022-09-06T05:24:12.679Z,15.76
2022-09-06T05:25:12.666Z,15.80
2022-09-06T05:26:12.670Z,15.73
2022-09-06T05:27:12.681Z,15.82
2022-09-06T05:28:12.656Z,15.77
2022-09-06T05:29:12.661Z,15.83
2022-09-06T05:30:12.649Z,15.77
2022-09-06T05:31:12.739Z,15.80
2022-09-06T05:32:12.668Z,15.86
2022-09-06T05:33:12.661Z,15.83
2022-09-06T05:34:12.646Z,16.02
2022-09-06T05:35:12.640Z,15.86
2022-09-06T05:36:12.648Z,15.83
2022-09-06T05:37:12.644Z,15.92
2022-09-06T05:38:12.645Z,15.97
2022-09-06T05:39:12.641Z,15.95
2022-09-06T05:40:12.703Z,16.00
2022-09-06T05:41:12.642Z,16.13
2022-09-06T05:42:17.178Z,16.23
2022-09-06T05:43:12.645Z,16.28
2022-09-06T05:44:12.642Z,16.38
2022-09-06T05:45:12.653Z,16.35
2022-09-06T05:46:12.692Z,16.32
2022-09-06T05:47:12.628Z,16.31
2022-09-06T05:48:12.649Z,16.29
2022-09-06T05:49:12.637Z,16.31
2022-09-06T05:50:12.621Z,16.32
2022-09-06T05:51:12.731Z,16.31
2022-09-06T05:52:12.623Z,16.29
2022-09-06T05:53:12.624Z,16.29
2022-09-06T05:54:12.625Z,16.33
2022-09-06T05:55:12.619Z,16.29
2022-09-06T05:56:12.629Z,16.29
2022-09-06T05:57:12.653Z,16.31
2022-09-06T05:58:12.629Z,16.32
2022-09-06T05:59:12.616Z,16.33
2022-09-06T06:00:12.614Z,16.33
2022-09-06T06:01:12.690Z,16.35
2022-09-06T06:02:12.695Z,16.42
2022-09-06T06:03:12.611Z,16.42
2022-09-06T06:04:12.609Z,16.46
2022-09-06T06:05:12.635Z,16.50
2022-09-06T06:06:12.611Z,16.47
2022-09-06T06:07:12.629Z,16.36
2022-09-06T06:08:12.718Z,16.35
2022-09-06T06:09:12.628Z,16.36
2022-09-06T06:10:12.609Z,16.33
2022-09-06T06:11:12.613Z,16.31
2022-09-06T06:12:12.615Z,16.29
2022-09-06T06:13:12.627Z,16.31
2022-09-06T06:14:12.613Z,16.31
2022-09-06T06:15:12.653Z,16.32
2022-09-06T06:16:12.711Z,16.38
2022-09-06T06:17:12.604Z,16.36
2022-09-06T06:18:12.611Z,16.36
2022-09-06T06:19:12.607Z,16.32
2022-09-06T06:20:12.602Z,16.39
2022-09-06T06:21:12.603Z,16.36
2022-09-06T06:22:12.598Z,16.42
2022-09-06T06:23:12.608Z,16.41
2022-09-06T06:24:12.602Z,16.49
2022-09-06T06:25:12.766Z,16.50
2022-09-06T06:26:12.606Z,16.33
2022-09-06T06:27:12.604Z,16.46
2022-09-06T06:28:12.615Z,16.54
2022-09-06T06:29:12.626Z,16.58
2022-09-06T06:30:17.780Z,16.58
2022-09-06T06:31:12.643Z,16.56
2022-09-06T06:32:12.596Z,16.71
2022-09-06T06:33:12.627Z,16.81
2022-09-06T06:34:12.598Z,16.83
2022-09-06T06:35:12.603Z,17.01
2022-09-06T06:36:12.627Z,17.11
2022-09-06T06:37:12.609Z,17.22
2022-09-06T06:38:12.607Z,17.31
2022-09-06T06:39:12.609Z,17.42
2022-09-06T06:40:12.655Z,17.52
2022-09-06T06:41:12.632Z,17.38
2022-09-06T06:42:12.614Z,17.42
2022-09-06T06:43:12.644Z,17.31
2022-09-06T06:44:12.646Z,17.31
2022-09-06T06:45:12.628Z,17.24
2022-09-06T06:46:12.697Z,17.19
2022-09-06T06:47:12.643Z,17.23
2022-09-06T06:48:12.644Z,17.29
2022-09-06T06:49:12.649Z,17.31
2022-09-06T06:50:12.661Z,17.38
2022-09-06T06:51:12.646Z,17.46
2022-09-06T06:52:12.663Z,17.46
2022-09-06T06:53:12.661Z,17.59
2022-09-06T06:54:12.668Z,17.76
2022-09-06T06:55:12.679Z,17.83
2022-09-06T06:56:12.699Z,17.85
2022-09-06T06:57:12.701Z,17.86
2022-09-06T06:58:12.690Z,17.97
2022-09-06T06:59:12.685Z,17.97
2022-09-06T07:00:12.695Z,18.01
2022-09-06T07:01:12.853Z,18.11
2022-09-06T07:02:12.841Z,18.15
2022-09-06T07:03:12.723Z,18.31
2022-09-06T07:04:12.728Z,18.45
2022-09-06T07:06:13.149Z,18.45
2022-09-06T07:08:12.777Z,18.78
2022-09-06T07:09:12.795Z,18.89
2022-09-06T07:11:12.782Z,19.02
2022-09-06T07:12:12.799Z,19.12
2022-09-06T07:13:12.796Z,19.26
2022-09-06T07:14:12.815Z,19.29
2022-09-06T07:15:12.853Z,19.33
2022-09-06T07:16:12.850Z,19.29
2022-09-06T07:17:12.852Z,19.39
2022-09-06T07:18:12.845Z,19.44
2022-09-06T07:20:13.617Z,19.66
2022-09-06T07:22:13.784Z,19.91
2022-09-06T07:24:12.977Z,20.03
2022-09-06T07:25:14.474Z,20.14
2022-09-06T07:26:12.975Z,20.22
2022-09-06T07:28:13.007Z,20.41
2022-09-06T07:29:13.001Z,20.40
2022-09-06T07:30:13.006Z,20.39
2022-09-06T07:32:13.125Z,20.29
2022-09-06T07:33:13.032Z,20.32
2022-09-06T07:34:13.036Z,20.32
2022-09-06T07:35:13.048Z,20.29
2022-09-06T07:36:13.045Z,20.29
2022-09-06T07:37:13.047Z,20.44
2022-09-06T07:38:13.060Z,20.50
2022-09-06T07:39:13.064Z,20.67
2022-09-06T07:40:13.162Z,20.78
2022-09-06T07:41:13.092Z,20.87
2022-09-06T07:42:13.096Z,20.97
2022-09-06T07:43:13.111Z,20.99
2022-09-06T07:44:13.141Z,21.09
2022-09-06T07:45:13.136Z,21.17
2022-09-06T07:46:13.290Z,21.20
2022-09-06T07:48:13.193Z,21.21
2022-09-06T07:49:13.174Z,21.25
2022-09-06T07:51:13.209Z,21.18
2022-09-06T07:53:16.597Z,21.12
2022-09-06T07:54:30.044Z,21.03
2022-09-06T07:55:13.257Z,21.00
2022-09-06T07:56:13.268Z,21.07
2022-09-06T07:57:13.274Z,21.03
2022-09-06T07:58:13.281Z,21.02
2022-09-06T07:59:13.299Z,21.12
2022-09-06T08:00:13.300Z,21.05
2022-09-06T08:01:13.349Z,21.09
2022-09-06T08:02:13.411Z,21.00
2022-09-06T08:03:13.368Z,21.09
2022-09-06T08:04:13.349Z,20.93
2022-09-06T08:06:13.371Z,20.69
2022-09-06T08:07:43.042Z,20.56
2022-09-06T08:09:13.392Z,20.39
2022-09-06T08:10:14.853Z,20.41
2022-09-06T08:11:13.406Z,20.28
2022-09-06T08:12:13.411Z,20.41
2022-09-06T08:13:13.431Z,20.28
2022-09-06T08:14:13.434Z,20.31
2022-09-06T08:15:13.443Z,20.31
2022-09-06T08:16:13.514Z,20.24
2022-09-06T08:17:13.453Z,20.39
2022-09-06T08:18:13.491Z,20.22
2022-09-06T08:19:13.467Z,20.25
2022-09-06T08:21:13.557Z,20.06
2022-09-06T08:22:14.154Z,20.07
2022-09-06T08:23:13.542Z,20.00
2022-09-06T08:24:13.551Z,20.10
2022-09-06T08:25:13.566Z,20.09
2022-09-06T08:26:13.564Z,20.18
2022-09-06T08:27:14.593Z,20.16
2022-09-06T08:28:13.587Z,20.14
2022-09-06T08:29:13.613Z,20.25
2022-09-06T08:30:13.591Z,20.16
2022-09-06T08:31:13.668Z,20.09
2022-09-06T08:32:13.617Z,20.10
2022-09-06T08:33:14.627Z,20.16
2022-09-06T08:34:13.660Z,20.18
2022-09-06T08:35:13.610Z,20.34
2022-09-06T08:36:13.639Z,20.25
2022-09-06T08:37:13.619Z,20.31
2022-09-06T08:38:13.652Z,20.40
2022-09-06T08:39:14.666Z,20.40
2022-09-06T08:40:13.731Z,20.39
2022-09-06T08:41:13.675Z,20.40
2022-09-06T08:42:13.674Z,20.50
2022-09-06T08:43:13.639Z,20.48
2022-09-06T08:45:14.690Z,20.47
2022-09-06T08:46:13.726Z,20.44
2022-09-06T08:47:13.687Z,20.52
2022-09-06T08:48:13.697Z,20.39
2022-09-06T08:49:13.690Z,20.43
2022-09-06T08:50:13.704Z,20.43
2022-09-06T08:51:14.720Z,20.48
2022-09-06T08:52:13.691Z,20.34
2022-09-06T08:53:17.313Z,20.41
2022-09-06T08:54:13.711Z,20.43
2022-09-06T08:55:15.117Z,20.34
2022-09-06T08:56:13.737Z,20.48
2022-09-06T08:57:14.727Z,20.48
2022-09-06T08:58:13.748Z,20.52
2022-09-06T08:59:13.751Z,20.55
2022-09-06T09:00:13.728Z,20.51
2022-09-06T09:01:13.751Z,20.52
2022-09-06T09:02:13.769Z,20.50
2022-09-06T09:03:16.977Z,20.55
2022-09-06T09:04:13.761Z,20.55
2022-09-06T09:05:13.750Z,20.52
2022-09-06T09:06:15.229Z,20.41
2022-09-06T09:07:13.734Z,20.51
2022-09-06T09:08:13.752Z,20.44
2022-09-06T09:09:14.764Z,20.37
2022-09-06T09:10:13.752Z,20.37
2022-09-06T09:11:13.774Z,20.39
2022-09-06T09:12:13.818Z,20.44
2022-09-06T09:13:13.797Z,20.44
2022-09-06T09:14:13.771Z,20.52
2022-09-06T09:15:14.790Z,20.59
2022-09-06T09:16:13.825Z,20.58
2022-09-06T09:17:13.773Z,20.66
2022-09-06T09:18:13.786Z,20.67
2022-09-06T09:19:13.794Z,20.65
2022-09-06T09:20:13.819Z,20.67
2022-09-06T09:21:14.815Z,20.69
2022-09-06T09:22:13.806Z,20.69
2022-09-06T09:23:13.822Z,20.58
2022-09-06T09:24:13.816Z,20.67
2022-09-06T09:25:13.809Z,20.63
2022-09-06T09:26:13.816Z,20.65
2022-09-06T09:27:14.840Z,20.62
2022-09-06T09:28:13.819Z,20.59
2022-09-06T09:29:13.840Z,20.60
2022-09-06T09:31:13.845Z,20.74
2022-09-06T09:32:13.828Z,20.78
2022-09-06T09:33:14.870Z,20.75
2022-09-06T09:34:13.857Z,20.80
2022-09-06T09:35:13.847Z,20.75
2022-09-06T09:36:13.840Z,20.78
2022-09-06T09:38:13.865Z,20.80
2022-09-06T09:39:16.233Z,20.80
2022-09-06T09:40:13.860Z,20.78
2022-09-06T09:41:13.864Z,20.78
2022-09-06T09:42:13.870Z,20.72
2022-09-06T09:43:13.873Z,20.72
2022-09-06T09:44:13.893Z,20.80
2022-09-06T09:45:14.937Z,20.72
2022-09-06T09:46:13.968Z,20.70
2022-09-06T09:47:13.916Z,20.75
2022-09-06T09:48:13.880Z,20.63
2022-09-06T09:49:13.881Z,20.51
2022-09-06T09:50:16.319Z,20.52
2022-09-06T09:51:22.611Z,20.44
2022-09-06T09:52:13.943Z,20.48
2022-09-06T09:53:13.912Z,20.52
2022-09-06T09:54:13.908Z,20.51
2022-09-06T09:55:13.903Z,20.44
2022-09-06T09:57:54.299Z,20.51
2022-09-06T09:58:52.308Z,20.44
2022-09-06T09:59:58.329Z,20.41
2022-09-06T10:00:50.375Z,20.48
2022-09-06T10:01:43.298Z,20.39
2022-09-06T10:03:16.737Z,20.34
2022-09-06T10:04:46.277Z,20.43
2022-09-06T10:07:20.620Z,20.43
2022-09-06T10:09:24.622Z,20.39
2022-09-06T10:10:24.621Z,20.37
2022-09-06T10:12:28.728Z,20.47
2022-09-06T10:13:28.700Z,20.40
2022-09-06T10:15:32.693Z,20.50
2022-09-06T10:16:32.783Z,20.44
2022-09-06T10:18:36.735Z,20.39
2022-09-06T10:19:36.686Z,20.47
2022-09-06T10:21:40.739Z,20.28
2022-09-06T10:22:40.674Z,20.26
2022-09-06T10:24:34.245Z,20.29
2022-09-06T10:25:33.830Z,20.26
2022-09-06T10:27:45.734Z,20.36
2022-09-06T10:28:37.835Z,20.32
2022-09-06T10:30:41.826Z,20.31
2022-09-06T10:31:41.885Z,20.29
2022-09-06T10:33:45.852Z,20.40
2022-09-06T10:34:45.839Z,20.24
2022-09-06T10:36:49.841Z,20.32
2022-09-06T10:37:49.832Z,20.32
2022-09-06T10:39:53.921Z,20.37
2022-09-06T10:40:53.825Z,20.34
2022-09-06T10:42:57.923Z,20.29
2022-09-06T10:43:57.842Z,20.29
2022-09-06T10:46:01.926Z,20.25
2022-09-06T10:47:01.864Z,20.25
2022-09-06T10:49:06.445Z,20.28
2022-09-06T10:50:06.045Z,20.39
2022-09-06T10:52:10.062Z,20.31
2022-09-06T10:53:10.077Z,20.36
2022-09-06T10:55:02.977Z,20.26
2022-09-06T10:56:02.982Z,20.28
2022-09-06T10:58:22.535Z,20.41
2022-09-06T11:01:11.114Z,20.43
2022-09-06T11:02:11.220Z,20.39
2022-09-06T11:04:15.044Z,20.43
2022-09-06T11:05:44.579Z,20.39
2022-09-06T11:07:19.054Z,20.40
2022-09-06T11:10:23.034Z,20.51
2022-09-06T11:11:23.020Z,20.48
2022-09-06T11:13:28.061Z,20.65
2022-09-06T11:14:28.036Z,20.69
2022-09-06T11:16:32.052Z,20.75
2022-09-06T11:17:32.032Z,20.82
2022-09-06T11:19:36.011Z,20.81
2022-09-06T11:20:36.011Z,20.90
2022-09-06T11:22:40.065Z,20.92
2022-09-06T11:23:40.034Z,20.88
2022-09-06T11:25:44.017Z,20.90
2022-09-06T11:26:44.021Z,20.93
2022-09-06T11:28:48.045Z,20.92
2022-09-06T11:29:48.030Z,20.92
2022-09-06T11:32:52.035Z,20.85
2022-09-06T11:34:44.925Z,20.85
2022-09-06T11:35:44.929Z,20.81
2022-09-06T11:37:48.945Z,20.81
2022-09-06T11:38:48.940Z,20.84
2022-09-06T11:40:52.934Z,20.85
2022-09-06T11:41:52.941Z,20.81
2022-09-06T11:43:57.009Z,20.82
2022-09-06T11:44:56.949Z,20.85
2022-09-06T11:47:01.056Z,20.81
2022-09-06T11:48:00.971Z,20.82
2022-09-06T11:50:04.985Z,20.82
2022-09-06T11:51:04.979Z,20.82
2022-09-06T11:53:08.991Z,20.81
2022-09-06T11:54:08.964Z,20.80
2022-09-06T11:56:13.562Z,20.87
2022-09-06T11:57:13.211Z,20.87
2022-09-06T11:59:17.179Z,20.80
2022-09-06T12:00:17.181Z,20.90
2022-09-06T12:01:17.181Z,20.87
2022-09-06T12:02:17.185Z,20.80
2022-09-06T12:04:17.176Z,20.84
2022-09-06T12:05:17.182Z,20.80
2022-09-06T12:06:17.177Z,20.88
2022-09-06T12:07:17.179Z,20.87
2022-09-06T12:08:17.195Z,20.87
2022-09-06T12:09:17.206Z,20.82
2022-09-06T12:10:17.213Z,20.92
2022-09-06T12:11:17.203Z,20.84
2022-09-06T12:12:17.225Z,20.90
2022-09-06T12:13:17.225Z,20.96
2022-09-06T12:14:17.250Z,20.90
2022-09-06T12:15:17.245Z,20.82
2022-09-06T12:16:17.309Z,20.87
2022-09-06T12:17:17.212Z,20.95
2022-09-06T12:18:17.274Z,21.00
2022-09-06T12:19:17.219Z,20.90
2022-09-06T12:20:17.213Z,20.97
2022-09-06T12:21:17.217Z,20.85
2022-09-06T12:22:17.221Z,20.95
2022-09-06T12:23:17.226Z,20.93
2022-09-06T12:24:17.247Z,20.88
2022-09-06T12:25:17.240Z,21.02
2022-09-06T12:26:17.228Z,20.95
2022-09-06T12:27:17.229Z,20.96
2022-09-06T12:28:17.248Z,20.99
2022-09-06T12:29:17.242Z,20.97
2022-09-06T12:30:17.258Z,21.03
2022-09-06T12:31:18.457Z,21.03
2022-09-06T12:32:17.238Z,21.05
2022-09-06T12:33:17.241Z,21.07
2022-09-06T12:34:17.260Z,21.12
2022-09-06T12:36:17.281Z,21.09
2022-09-06T12:37:17.272Z,21.21
2022-09-06T12:38:17.281Z,21.11
2022-09-06T12:39:17.262Z,21.14
2022-09-06T12:40:17.290Z,21.11
2022-09-06T12:41:17.274Z,21.22
2022-09-06T12:42:17.282Z,21.17
2022-09-06T12:43:17.320Z,21.22
2022-09-06T12:44:17.300Z,21.29
2022-09-06T12:45:17.296Z,21.25
2022-09-06T12:46:17.349Z,21.29
2022-09-06T12:47:17.270Z,21.30
2022-09-06T12:48:17.276Z,21.35
2022-09-06T12:49:17.284Z,21.32
2022-09-06T12:50:17.284Z,21.35
2022-09-06T12:51:17.286Z,21.42
2022-09-06T12:52:17.284Z,21.42
2022-09-06T12:53:20.432Z,21.45
2022-09-06T12:54:17.308Z,21.48
2022-09-06T12:55:17.303Z,21.48
2022-09-06T12:56:17.295Z,21.55
2022-09-06T12:57:17.301Z,21.52
2022-09-06T12:58:17.303Z,21.50
2022-09-06T12:59:17.309Z,21.57
2022-09-06T13:00:17.311Z,21.64
2022-09-06T13:01:17.481Z,21.58
2022-09-06T13:02:17.470Z,21.62
2022-09-06T13:03:17.329Z,21.54
2022-09-06T13:04:17.324Z,21.67
2022-09-06T13:05:17.340Z,21.64
2022-09-06T13:06:17.353Z,21.69
2022-09-06T13:07:17.352Z,21.72
2022-09-06T13:08:17.350Z,21.67
2022-09-06T13:09:17.340Z,21.76
2022-09-06T13:10:17.336Z,21.67
2022-09-06T13:11:17.357Z,21.77
2022-09-06T13:12:17.353Z,21.76
2022-09-06T13:13:17.357Z,21.73
2022-09-06T13:14:17.346Z,21.70
2022-09-06T13:15:17.353Z,21.77
2022-09-06T13:16:17.396Z,21.82
2022-09-06T13:17:17.357Z,21.70
2022-09-06T13:18:17.365Z,21.76
2022-09-06T13:19:17.362Z,21.69
2022-09-06T13:20:17.383Z,21.67
2022-09-06T13:21:17.404Z,21.76
2022-09-06T13:22:17.389Z,21.67
2022-09-06T13:23:17.371Z,21.73
2022-09-06T13:24:17.402Z,21.61
2022-09-06T13:25:20.485Z,21.69
2022-09-06T13:26:17.385Z,21.73
2022-09-06T13:27:17.392Z,21.67
2022-09-06T13:28:17.392Z,21.69
2022-09-06T13:29:17.407Z,21.69
2022-09-06T13:30:17.428Z,21.70
2022-09-06T13:31:17.484Z,21.66
2022-09-06T13:32:17.407Z,21.72
2022-09-06T13:33:17.408Z,21.67
2022-09-06T13:34:17.408Z,21.67
2022-09-06T13:35:17.423Z,21.72
2022-09-06T13:36:17.423Z,21.79
2022-09-06T13:37:17.426Z,21.76
2022-09-06T13:38:17.418Z,21.75
2022-09-06T13:39:17.438Z,21.69
2022-09-06T13:40:17.426Z,21.80
2022-09-06T13:41:17.443Z,21.76
2022-09-06T13:42:17.439Z,21.70
2022-09-06T13:43:17.443Z,21.75
2022-09-06T13:44:17.466Z,21.76
2022-09-06T13:45:17.451Z,21.76
2022-09-06T13:46:17.510Z,21.80
2022-09-06T13:47:17.456Z,21.77
2022-09-06T13:48:28.794Z,21.93
2022-09-06T13:49:17.459Z,21.89
2022-09-06T13:50:17.463Z,21.82
2022-09-06T13:51:17.459Z,21.89
2022-09-06T13:52:17.464Z,21.92
2022-09-06T13:53:17.467Z,21.95
2022-09-06T13:54:17.476Z,21.93
2022-09-06T13:55:17.486Z,21.95
2022-09-06T13:56:17.488Z,21.99
2022-09-06T13:57:22.195Z,21.98